| time (UTC) | temp C | wind direction | speed KPH | gust KPH | rain 1hr cm | rain 24hr cm | rain mn cm | humidity % | barometer mb |
| 20260906132027 | 17 | 52 | 1.6 | 6.4 | 0.00 | 0.00 | 0.00 | 96 | 1020.7 |
| 20260906131503 | 17 | 50 | 1.6 | 8.0 | 0.00 | 0.00 | 0.00 | 96 | 1020.7 |
| 20260906131003 | 17 | 40 | 3.2 | 11.3 | 0.00 | 0.00 | 0.00 | 96 | 1020.5 |
| 20260906130524 | 17 | 42 | 4.8 | 11.3 | 0.00 | 0.00 | 0.00 | 95 | 1020.6 |
| 20260906130024 | 17 | 43 | 6.4 | 12.9 | 0.00 | 0.00 | 0.00 | 95 | 1020.5 |
| 20260906125503 | 17 | 44 | 6.4 | 12.9 | 0.00 | 0.00 | 0.00 | 94 | 1020.5 |
| 20260906125004 | 17 | 44 | 6.4 | 12.9 | 0.00 | 0.00 | 0.00 | 94 | 1020.5 |
| 20260906124503 | 17 | 41 | 4.8 | 12.9 | 0.00 | 0.00 | 0.00 | 94 | 1020.6 |
| 20260906124025 | 17 | 44 | 6.4 | 11.3 | 0.00 | 0.00 | 0.00 | 94 | 1020.6 |
| 20260906123503 | 17 | 46 | 6.4 | 11.3 | 0.00 | 0.00 | 0.00 | 94 | 1020.5 |
| 20260906123003 | 16 | 44 | 3.2 | 9.7 | 0.00 | 0.00 | 0.00 | 94 | 1020.4 |
| 20260906122503 | 16 | 43 | 1.6 | 6.4 | 0.00 | 0.00 | 0.00 | 95 | 1020.4 |
| 20260906122004 | 16 | 43 | 0.0 | 6.4 | 0.00 | 0.00 | 0.00 | 95 | 1020.5 |
| 20260906121503 | 16 | 40 | 1.6 | 8.0 | 0.00 | 0.00 | 0.00 | 95 | 1020.4 |
| 20260906121005 | 16 | 37 | 1.6 | 8.0 | 0.00 | 0.00 | 0.00 | 95 | 1020.3 |
| 20260906120505 | 16 | 35 | 1.6 | 6.4 | 0.00 | 0.00 | 0.00 | 95 | 1020.1 |
| 20260906120004 | 16 | 34 | 1.6 | 6.4 | 0.00 | 0.00 | 0.00 | 95 | 1020.0 |
| 20260906115504 | 16 | 32 | 0.0 | 6.4 | 0.00 | 0.00 | 0.00 | 95 | 1019.9 |
| 20260906115004 | 16 | 34 | 1.6 | 6.4 | 0.00 | 0.00 | 0.00 | 94 | 1019.9 |
| 20260906114524 | 16 | 36 | 1.6 | 8.0 | 0.00 | 0.00 | 0.00 | 94 | 1019.8 |
| 20260906114003 | 16 | 37 | 1.6 | 8.0 | 0.00 | 0.00 | 0.00 | 94 | 1019.8 |
| 20260906113503 | 16 | 35 | 1.6 | 6.4 | 0.00 | 0.00 | 0.00 | 94 | 1019.7 |
| 20260906113004 | 16 | 30 | 1.6 | 6.4 | 0.00 | 0.00 | 0.00 | 94 | 1019.6 |
| 20260906112503 | 16 | 32 | 1.6 | 6.4 | 0.00 | 0.00 | 0.00 | 94 | 1019.5 |
| 20260906112003 | 16 | 40 | 1.6 | 6.4 | 0.00 | 0.00 | 0.00 | 94 | 1019.5 |
| 20260906111504 | 16 | 41 | 3.2 | 8.0 | 0.00 | 0.00 | 0.00 | 93 | 1019.4 |
| 20260906111003 | 16 | 34 | 3.2 | 8.0 | 0.00 | 0.00 | 0.00 | 93 | 1019.4 |
| 20260906110503 | 16 | 30 | 1.6 | 6.4 | 0.00 | 0.00 | 0.00 | 93 | 1019.4 |
| 20260906110006 | 16 | 29 | 1.6 | 8.0 | 0.00 | 0.00 | 0.00 | 93 | 1019.3 |
| 20260906105524 | 16 | 27 | 1.6 | 8.0 | 0.00 | 0.00 | 0.00 | 93 | 1019.3 |
| 20260906105003 | 16 | 19 | 1.6 | 6.4 | 0.00 | 0.00 | 0.00 | 93 | 1019.3 |
| 20260906104503 | 16 | 23 | 0.0 | 4.8 | 0.00 | 0.00 | 0.00 | 93 | 1019.3 |
| 20260906104024 | 16 | 25 | 1.6 | 6.4 | 0.00 | 0.00 | 0.00 | 92 | 1019.3 |
| 20260906103506 | 16 | 25 | 1.6 | 6.4 | 0.00 | 0.00 | 0.00 | 92 | 1019.3 |
| 20260906103003 | 16 | 32 | 0.0 | 4.8 | 0.00 | 0.00 | 0.00 | 92 | 1019.3 |
| 20260906102504 | 16 | 46 | 0.0 | 6.4 | 0.00 | 0.00 | 0.00 | 92 | 1019.2 |
| 20260906102024 | 16 | 59 | 0.0 | 6.4 | 0.00 | 0.00 | 0.00 | 92 | 1019.2 |
| 20260906101524 | 16 | 0 | 0.0 | 0.0 | 0.00 | 0.00 | 0.00 | 92 | 1019.2 |
| 20260906101006 | 16 | 0 | 0.0 | 0.0 | 0.00 | 0.00 | 0.00 | 92 | 1019.2 |
| 20260906100503 | 16 | 0 | 0.0 | 0.0 | 0.00 | 0.00 | 0.00 | 91 | 1019.2 |
| 20260906100024 | 16 | 0 | 0.0 | 0.0 | 0.00 | 0.00 | 0.00 | 91 | 1019.2 |
| 20260906095504 | 16 | 0 | 0.0 | 0.0 | 0.00 | 0.00 | 0.00 | 91 | 1019.2 |
| 20260906095006 | 16 | 61 | 0.0 | 3.2 | 0.00 | 0.00 | 0.00 | 91 | 1019.2 |
| 20260906094506 | 16 | 42 | 1.6 | 8.0 | 0.00 | 0.00 | 0.00 | 91 | 1019.2 |
| 20260906094003 | 16 | 40 | 1.6 | 8.0 | 0.00 | 0.00 | 0.00 | 91 | 1019.2 |
| 20260906093524 | 16 | 54 | 1.6 | 6.4 | 0.00 | 0.00 | 0.00 | 91 | 1019.2 |
| 20260906093003 | 16 | 45 | 1.6 | 8.0 | 0.00 | 0.00 | 0.00 | 91 | 1019.1 |
| 20260906092503 | 16 | 43 | 3.2 | 8.0 | 0.00 | 0.00 | 0.00 | 91 | 1019.0 |
| 20260906092026 | 16 | 50 | 1.6 | 8.0 | 0.00 | 0.00 | 0.00 | 91 | 1019.1 |
| 20260906091503 | 16 | 43 | 1.6 | 6.4 | 0.00 | 0.00 | 0.00 | 92 | 1019.1 |
| 20260906091003 | 16 | 27 | 0.0 | 6.4 | 0.00 | 0.00 | 0.00 | 92 | 1019.2 |
| 20260906090524 | 16 | 44 | 0.0 | 3.2 | 0.00 | 0.00 | 0.00 | 92 | 1019.2 |
| 20260906090003 | 16 | 44 | 0.0 | 3.2 | 0.00 | 0.00 | 0.00 | 92 | 1019.3 |
| 20260906085503 | 16 | 43 | 0.0 | 1.6 | 0.00 | 0.00 | 0.00 | 92 | 1019.2 |
| 20260906085003 | 16 | 0 | 0.0 | 0.0 | 0.00 | 0.00 | 0.00 | 92 | 1019.3 |
| 20260906084503 | 16 | 0 | 0.0 | 0.0 | 0.00 | 0.00 | 0.00 | 92 | 1019.2 |
| 20260906084003 | 16 | 43 | 0.0 | 1.6 | 0.00 | 0.00 | 0.00 | 92 | 1019.1 |
| 20260906083503 | 16 | 43 | 0.0 | 1.6 | 0.00 | 0.00 | 0.00 | 92 | 1019.0 |
| 20260906083024 | 16 | 0 | 0.0 | 0.0 | 0.00 | 0.00 | 0.00 | 92 | 1019.1 |
| 20260906082524 | 16 | 44 | 0.0 | 3.2 | 0.00 | 0.00 | 0.00 | 92 | 1019.1 |
| 20260906082003 | 16 | 44 | 0.0 | 3.2 | 0.00 | 0.00 | 0.00 | 92 | 1019.1 |
| 20260906081503 | 16 | 0 | 0.0 | 0.0 | 0.00 | 0.00 | 0.00 | 92 | 1019.1 |
| 20260906081003 | 16 | 38 | 0.0 | 3.2 | 0.00 | 0.00 | 0.00 | 93 | 1019.2 |
| 20260906080504 | 16 | 38 | 0.0 | 3.2 | 0.00 | 0.00 | 0.00 | 93 | 1019.2 |
| 20260906080025 | 16 | 0 | 0.0 | 0.0 | 0.00 | 0.00 | 0.00 | 93 | 1019.2 |
| 20260906075504 | 16 | 0 | 0.0 | 0.0 | 0.00 | 0.00 | 0.00 | 93 | 1019.2 |
| 20260906075003 | 16 | 0 | 0.0 | 0.0 | 0.00 | 0.00 | 0.00 | 93 | 1019.2 |
| 20260906074505 | 16 | 0 | 0.0 | 0.0 | 0.00 | 0.00 | 0.00 | 93 | 1019.1 |
| 20260906074024 | 16 | 0 | 0.0 | 0.0 | 0.00 | 0.00 | 0.00 | 93 | 1019.1 |
| 20260906073504 | 16 | 0 | 0.0 | 0.0 | 0.00 | 0.00 | 0.00 | 93 | 1018.9 |
| 20260906073005 | 16 | 0 | 0.0 | 0.0 | 0.00 | 0.00 | 0.00 | 93 | 1018.9 |
| 20260906072503 | 16 | 0 | 0.0 | 0.0 | 0.00 | 0.00 | 0.00 | 93 | 1018.9 |
| 20260906072025 | 16 | 0 | 0.0 | 0.0 | 0.00 | 0.00 | 0.00 | 94 | 1018.9 |
| 20260906071505 | 16 | 0 | 0.0 | 0.0 | 0.00 | 0.00 | 0.00 | 94 | 1019.0 |
| 20260906071024 | 16 | 0 | 0.0 | 0.0 | 0.00 | 0.00 | 0.00 | 94 | 1019.1 |
| 20260906070504 | 16 | 0 | 0.0 | 0.0 | 0.00 | 0.00 | 0.00 | 95 | 1019.0 |
| 20260906070004 | 16 | 0 | 0.0 | 0.0 | 0.00 | 0.00 | 0.00 | 95 | 1019.0 |
| 20260906065525 | 16 | 0 | 0.0 | 0.0 | 0.00 | 0.00 | 0.00 | 95 | 1019.0 |
| 20260906065003 | 16 | 0 | 0.0 | 0.0 | 0.00 | 0.00 | 0.00 | 95 | 1019.1 |
| 20260906064504 | 16 | 0 | 0.0 | 0.0 | 0.00 | 0.00 | 0.00 | 95 | 1019.1 |
| 20260906064003 | 17 | 0 | 0.0 | 0.0 | 0.00 | 0.00 | 0.00 | 95 | 1019.2 |
| 20260906063525 | 17 | 0 | 0.0 | 0.0 | 0.00 | 0.00 | 0.00 | 95 | 1019.3 |
| 20260906063004 | 17 | 0 | 0.0 | 0.0 | 0.00 | 0.00 | 0.00 | 95 | 1019.1 |
| 20260906062503 | 17 | 0 | 0.0 | 0.0 | 0.00 | 0.00 | 0.00 | 95 | 1019.1 |
| 20260906062003 | 17 | 0 | 0.0 | 0.0 | 0.00 | 0.00 | 0.00 | 95 | 1019.2 |
| 20260906061506 | 17 | 0 | 0.0 | 0.0 | 0.00 | 0.00 | 0.00 | 95 | 1019.1 |
| 20260906061005 | 17 | 0 | 0.0 | 0.0 | 0.00 | 0.00 | 0.00 | 95 | 1019.2 |
| 20260906060524 | 17 | 0 | 0.0 | 0.0 | 0.00 | 0.00 | 0.00 | 95 | 1019.1 |
| 20260906060003 | 17 | 0 | 0.0 | 0.0 | 0.00 | 0.00 | 0.00 | 95 | 1019.1 |
| 20260906055525 | 17 | 0 | 0.0 | 0.0 | 0.00 | 0.00 | 0.00 | 95 | 1019.1 |
| 20260906055024 | 17 | 0 | 0.0 | 0.0 | 0.00 | 0.00 | 0.00 | 95 | 1019.0 |
| 20260906054524 | 17 | 0 | 0.0 | 0.0 | 0.00 | 0.00 | 0.00 | 95 | 1019.1 |
| 20260906054003 | 17 | 0 | 0.0 | 0.0 | 0.00 | 0.00 | 0.00 | 95 | 1019.0 |
| 20260906053524 | 17 | 0 | 0.0 | 0.0 | 0.00 | 0.00 | 0.00 | 95 | 1019.0 |
| 20260906053006 | 17 | 0 | 0.0 | 0.0 | 0.00 | 0.00 | 0.00 | 95 | 1019.1 |
| 20260906052503 | 17 | 0 | 0.0 | 0.0 | 0.00 | 0.00 | 0.00 | 95 | 1019.1 |
| 20260906052003 | 17 | 0 | 0.0 | 0.0 | 0.00 | 0.00 | 0.00 | 94 | 1019.1 |
| 20260906051524 | 17 | 0 | 0.0 | 0.0 | 0.00 | 0.00 | 0.00 | 94 | 1019.1 |
| 20260906051003 | 17 | 0 | 0.0 | 0.0 | 0.00 | 0.00 | 0.00 | 94 | 1019.1 |
| 20260906050503 | 17 | 0 | 0.0 | 0.0 | 0.00 | 0.00 | 0.00 | 94 | 1019.1 |
| 20260906050003 | 18 | 0 | 0.0 | 0.0 | 0.00 | 0.00 | 0.00 | 93 | 1019.0 |
| 20260906045505 | 18 | 0 | 0.0 | 0.0 | 0.00 | 0.00 | 0.00 | 93 | 1018.9 |
| 20260906045004 | 18 | 0 | 0.0 | 0.0 | 0.00 | 0.00 | 0.00 | 93 | 1018.9 |
| 20260906044503 | 18 | 0 | 0.0 | 0.0 | 0.00 | 0.00 | 0.00 | 93 | 1018.8 |
| 20260906044005 | 18 | 0 | 0.0 | 0.0 | 0.00 | 0.00 | 0.00 | 92 | 1018.8 |
| 20260906043524 | 18 | 0 | 0.0 | 0.0 | 0.00 | 0.00 | 0.00 | 92 | 1018.7 |
| 20260906043003 | 18 | 0 | 0.0 | 0.0 | 0.00 | 0.00 | 0.00 | 92 | 1018.7 |
| 20260906042524 | 18 | 0 | 0.0 | 0.0 | 0.00 | 0.00 | 0.00 | 92 | 1018.5 |
| 20260906042006 | 18 | 35 | 0.0 | 3.2 | 0.00 | 0.00 | 0.00 | 91 | 1018.5 |
| 20260906041503 | 18 | 31 | 0.0 | 3.2 | 0.00 | 0.00 | 0.00 | 92 | 1018.5 |
| 20260906041004 | 18 | 22 | 0.0 | 3.2 | 0.00 | 0.00 | 0.00 | 92 | 1018.5 |
| 20260906040524 | 19 | 21 | 0.0 | 6.4 | 0.00 | 0.00 | 0.00 | 92 | 1018.4 |
| 20260906040003 | 19 | 35 | 0.0 | 6.4 | 0.00 | 0.00 | 0.00 | 92 | 1018.4 |
| 20260906035503 | 19 | 46 | 1.6 | 8.0 | 0.00 | 0.00 | 0.00 | 92 | 1018.5 |
| 20260906035005 | 19 | 51 | 1.6 | 8.0 | 0.00 | 0.00 | 0.00 | 92 | 1018.5 |
| 20260906034503 | 19 | 45 | 3.2 | 9.7 | 0.00 | 0.00 | 0.00 | 92 | 1018.3 |
| 20260906034003 | 19 | 42 | 3.2 | 9.7 | 0.00 | 0.00 | 0.00 | 93 | 1018.4 |
| 20260906033503 | 19 | 41 | 1.6 | 6.4 | 0.00 | 0.00 | 0.00 | 94 | 1018.2 |
| 20260906033005 | 19 | 38 | 0.0 | 4.8 | 0.00 | 0.00 | 0.00 | 94 | 1018.1 |
| 20260906032526 | 19 | 0 | 0.0 | 0.0 | 0.00 | 0.00 | 0.00 | 94 | 1018.1 |
| 20260906032024 | 19 | 0 | 0.0 | 0.0 | 0.00 | 0.00 | 0.00 | 94 | 1018.1 |
| 20260906031524 | 19 | 0 | 0.0 | 0.0 | 0.00 | 0.00 | 0.00 | 93 | 1018.0 |
| 20260906031003 | 20 | 0 | 0.0 | 0.0 | 0.00 | 0.00 | 0.00 | 93 | 1018.0 |
| 20260906030504 | 20 | 0 | 0.0 | 0.0 | 0.00 | 0.00 | 0.00 | 93 | 1018.2 |
| 20260906030004 | 20 | 0 | 0.0 | 0.0 | 0.00 | 0.00 | 0.00 | 93 | 1018.2 |
| 20260906025503 | 20 | 45 | 0.0 | 1.6 | 0.00 | 0.00 | 0.00 | 92 | 1018.2 |
| 20260906025025 | 20 | 45 | 0.0 | 1.6 | 0.00 | 0.00 | 0.00 | 92 | 1018.1 |
| 20260906024506 | 20 | 42 | 1.6 | 8.0 | 0.00 | 0.00 | 0.00 | 92 | 1018.1 |
| 20260906024003 | 20 | 39 | 1.6 | 8.0 | 0.00 | 0.00 | 0.00 | 92 | 1018.0 |
| 20260906023524 | 20 | 35 | 0.0 | 6.4 | 0.00 | 0.00 | 0.00 | 92 | 1018.0 |
| 20260906023003 | 20 | 28 | 1.6 | 6.4 | 0.00 | 0.00 | 0.00 | 92 | 1017.9 |
| 20260906022503 | 20 | 36 | 1.6 | 6.4 | 0.00 | 0.00 | 0.00 | 92 | 1017.8 |
| 20260906022004 | 20 | 46 | 1.6 | 8.0 | 0.00 | 0.00 | 0.00 | 91 | 1017.8 |
| 20260906021524 | 20 | 48 | 1.6 | 8.0 | 0.00 | 0.00 | 0.00 | 91 | 1017.7 |
| 20260906021024 | 20 | 42 | 1.6 | 6.4 | 0.00 | 0.00 | 0.00 | 91 | 1017.7 |
| 20260906020503 | 20 | 48 | 1.6 | 8.0 | 0.00 | 0.00 | 0.00 | 91 | 1017.6 |
| 20260906020024 | 20 | 54 | 3.2 | 8.0 | 0.00 | 0.00 | 0.00 | 91 | 1017.6 |
| 20260906015503 | 20 | 51 | 3.2 | 9.7 | 0.00 | 0.00 | 0.00 | 91 | 1017.5 |
| 20260906015028 | 20 | 50 | 3.2 | 9.7 | 0.00 | 0.00 | 0.00 | 91 | 1017.4 |
| 20260906014503 | 20 | 48 | 3.2 | 9.7 | 0.00 | 0.00 | 0.00 | 91 | 1017.4 |
| 20260906014003 | 21 | 43 | 3.2 | 11.3 | 0.00 | 0.00 | 0.00 | 91 | 1017.3 |
| 20260906013527 | 21 | 44 | 1.6 | 11.3 | 0.00 | 0.00 | 0.00 | 91 | 1017.2 |
| 20260906013003 | 21 | 42 | 1.6 | 8.0 | 0.00 | 0.00 | 0.00 | 91 | 1017.2 |
| 20260906012524 | 21 | 44 | 1.6 | 8.0 | 0.00 | 0.00 | 0.00 | 90 | 1017.2 |
| 20260906012027 | 21 | 48 | 1.6 | 8.0 | 0.00 | 0.00 | 0.00 | 90 | 1017.2 |
| 20260906011503 | 21 | 50 | 1.6 | 8.0 | 0.00 | 0.00 | 0.00 | 90 | 1017.3 |
| 20260906011024 | 21 | 50 | 0.0 | 8.0 | 0.00 | 0.00 | 0.00 | 90 | 1017.3 |
| 20260906010503 | 21 | 50 | 0.0 | 3.2 | 0.00 | 0.00 | 0.00 | 89 | 1017.3 |
| 20260906010003 | 21 | 50 | 0.0 | 6.4 | 0.00 | 0.00 | 0.00 | 89 | 1017.3 |
| 20260906005503 | 22 | 50 | 0.0 | 6.4 | 0.00 | 0.00 | 0.00 | 89 | 1017.3 |
| 20260906005003 | 22 | 50 | 0.0 | 6.4 | 0.00 | 0.00 | 0.00 | 89 | 1017.4 |
| 20260906004524 | 22 | 53 | 0.0 | 1.6 | 0.00 | 0.00 | 0.00 | 88 | 1017.4 |
| 20260906004003 | 22 | 53 | 0.0 | 6.4 | 0.00 | 0.00 | 0.00 | 88 | 1017.4 |
| 20260906003503 | 22 | 56 | 1.6 | 6.4 | 0.00 | 0.00 | 0.00 | 87 | 1017.4 |
| 20260906003004 | 22 | 57 | 3.2 | 9.7 | 0.00 | 0.00 | 0.00 | 87 | 1017.5 |
| 20260906002524 | 22 | 58 | 4.8 | 9.7 | 0.00 | 0.00 | 0.00 | 86 | 1017.4 |
| 20260906002024 | 22 | 55 | 3.2 | 9.7 | 0.00 | 0.00 | 0.00 | 86 | 1017.5 |
| 20260906001524 | 23 | 54 | 3.2 | 9.7 | 0.00 | 0.00 | 0.00 | 86 | 1017.5 |
| 20260906001003 | 23 | 44 | 4.8 | 11.3 | 0.00 | 0.00 | 0.00 | 86 | 1017.5 |
| 20260906000503 | 23 | 37 | 4.8 | 11.3 | 0.00 | 0.00 | 0.00 | 85 | 1017.4 |
| 20260906000003 | 23 | 42 | 6.4 | 16.1 | 0.00 | 0.00 | 0.00 | 85 | 1017.4 |
| 20260905235524 | 23 | 43 | 8.0 | 16.1 | 0.00 | 0.00 | 0.00 | 85 | 1017.4 |
| 20260905235024 | 23 | 44 | 6.4 | 12.9 | 0.00 | 0.00 | 0.00 | 85 | 1017.4 |
| 20260905234504 | 23 | 45 | 4.8 | 12.9 | 0.00 | 0.00 | 0.00 | 85 | 1017.4 |
| 20260905234024 | 23 | 40 | 4.8 | 12.9 | 0.00 | 0.00 | 0.00 | 85 | 1017.5 |
| 20260905233524 | 23 | 41 | 4.8 | 14.5 | 0.00 | 0.00 | 0.00 | 84 | 1017.5 |
| 20260905233024 | 23 | 51 | 6.4 | 14.5 | 0.00 | 0.00 | 0.00 | 84 | 1017.4 |
| 20260905232503 | 23 | 56 | 8.0 | 14.5 | 0.00 | 0.00 | 0.00 | 84 | 1017.4 |
| 20260905232024 | 23 | 53 | 8.0 | 14.5 | 0.00 | 0.00 | 0.00 | 83 | 1017.4 |
| 20260905231503 | 23 | 46 | 9.7 | 17.7 | 0.00 | 0.00 | 0.00 | 82 | 1017.4 |
| 20260905231024 | 23 | 41 | 9.7 | 17.7 | 0.00 | 0.00 | 0.00 | 83 | 1017.4 |
| 20260905230503 | 24 | 41 | 8.0 | 16.1 | 0.00 | 0.00 | 0.00 | 82 | 1017.4 |
| 20260905230024 | 24 | 42 | 8.0 | 17.7 | 0.00 | 0.00 | 0.00 | 81 | 1017.4 |
| 20260905225524 | 24 | 44 | 6.4 | 17.7 | 0.00 | 0.00 | 0.00 | 80 | 1017.4 |
| 20260905225024 | 25 | 51 | 4.8 | 14.5 | 0.00 | 0.00 | 0.00 | 80 | 1017.3 |
| 20260905224503 | 24 | 46 | 3.2 | 11.3 | 0.00 | 0.00 | 0.00 | 82 | 1017.2 |
| 20260905224024 | 24 | 36 | 1.6 | 9.7 | 0.00 | 0.00 | 0.00 | 82 | 1017.3 |
| 20260905223524 | 24 | 37 | 3.2 | 9.7 | 0.00 | 0.00 | 0.00 | 82 | 1017.3 |
| 20260905223025 | 24 | 42 | 3.2 | 11.3 | 0.00 | 0.00 | 0.00 | 82 | 1017.2 |
| 20260905222524 | 24 | 51 | 4.8 | 14.5 | 0.00 | 0.00 | 0.00 | 81 | 1017.1 |
| 20260905222003 | 24 | 48 | 9.7 | 19.3 | 0.00 | 0.00 | 0.00 | 80 | 1017.0 |
| 20260905221503 | 25 | 45 | 9.7 | 19.3 | 0.00 | 0.00 | 0.00 | 78 | 1016.9 |
| 20260905221024 | 25 | 42 | 6.4 | 17.7 | 0.00 | 0.00 | 0.00 | 79 | 1016.9 |
| 20260905220525 | 25 | 42 | 8.0 | 16.1 | 0.00 | 0.00 | 0.00 | 80 | 1016.8 |
| 20260905220003 | 25 | 43 | 9.7 | 17.7 | 0.00 | 0.00 | 0.00 | 81 | 1016.9 |
| 20260905215503 | 24 | 46 | 8.0 | 14.5 | 0.00 | 0.00 | 0.00 | 80 | 1016.8 |
| 20260905215003 | 25 | 51 | 8.0 | 16.1 | 0.00 | 0.00 | 0.00 | 80 | 1016.8 |
| 20260905214524 | 25 | 55 | 8.0 | 17.7 | 0.00 | 0.00 | 0.00 | 80 | 1016.8 |
| 20260905214004 | 25 | 48 | 8.0 | 17.7 | 0.00 | 0.00 | 0.00 | 78 | 1016.6 |
| 20260905213503 | 25 | 42 | 8.0 | 16.1 | 0.00 | 0.00 | 0.00 | 78 | 1016.7 |
| 20260905213003 | 25 | 43 | 8.0 | 16.1 | 0.00 | 0.00 | 0.00 | 78 | 1016.6 |
| 20260905212503 | 25 | 42 | 9.7 | 16.1 | 0.00 | 0.00 | 0.00 | 78 | 1016.6 |
| 20260905212024 | 25 | 42 | 9.7 | 16.1 | 0.00 | 0.00 | 0.00 | 78 | 1016.7 |
| 20260905211524 | 25 | 46 | 8.0 | 14.5 | 0.00 | 0.00 | 0.00 | 78 | 1016.7 |
| 20260905211003 | 25 | 47 | 6.4 | 14.5 | 0.00 | 0.00 | 0.00 | 77 | 1016.7 |
| 20260905210526 | 25 | 44 | 6.4 | 12.9 | 0.00 | 0.00 | 0.00 | 79 | 1016.8 |
| 20260905210003 | 25 | 44 | 8.0 | 16.1 | 0.00 | 0.00 | 0.00 | 79 | 1016.8 |
| 20260905205524 | 25 | 44 | 8.0 | 16.1 | 0.00 | 0.00 | 0.00 | 79 | 1016.7 |
| 20260905205003 | 25 | 43 | 8.0 | 16.1 | 0.00 | 0.00 | 0.00 | 79 | 1016.7 |
| 20260905204524 | 25 | 51 | 8.0 | 16.1 | 0.00 | 0.00 | 0.00 | 78 | 1016.8 |
| 20260905204003 | 25 | 51 | 8.0 | 19.3 | 0.00 | 0.00 | 0.00 | 78 | 1016.8 |
| 20260905203503 | 25 | 46 | 8.0 | 19.3 | 0.00 | 0.00 | 0.00 | 78 | 1016.8 |
| 20260905203003 | 25 | 47 | 8.0 | 17.7 | 0.00 | 0.00 | 0.00 | 78 | 1016.9 |
| 20260905202503 | 25 | 44 | 9.7 | 17.7 | 0.00 | 0.00 | 0.00 | 79 | 1016.8 |
| 20260905202003 | 25 | 44 | 9.7 | 16.1 | 0.00 | 0.00 | 0.00 | 79 | 1016.9 |
| 20260905201525 | 25 | 46 | 6.4 | 16.1 | 0.00 | 0.00 | 0.00 | 79 | 1017.0 |
| 20260905201003 | 25 | 42 | 4.8 | 11.3 | 0.00 | 0.00 | 0.00 | 79 | 1017.0 |
| 20260905200503 | 25 | 37 | 4.8 | 12.9 | 0.00 | 0.00 | 0.00 | 81 | 1017.2 |
| 20260905200004 | 25 | 44 | 8.0 | 17.7 | 0.00 | 0.00 | 0.00 | 82 | 1017.2 |
| 20260905195503 | 24 | 45 | 8.0 | 17.7 | 0.00 | 0.00 | 0.00 | 81 | 1017.2 |
| 20260905195024 | 24 | 43 | 8.0 | 14.5 | 0.00 | 0.00 | 0.00 | 82 | 1017.1 |
| 20260905194524 | 24 | 46 | 8.0 | 14.5 | 0.00 | 0.00 | 0.00 | 82 | 1017.1 |
| 20260905194005 | 24 | 47 | 8.0 | 17.7 | 0.00 | 0.00 | 0.00 | 82 | 1017.1 |
| 20260905193503 | 24 | 46 | 8.0 | 17.7 | 0.00 | 0.00 | 0.00 | 82 | 1017.2 |
| 20260905193003 | 24 | 38 | 4.8 | 12.9 | 0.00 | 0.00 | 0.00 | 82 | 1017.1 |
| 20260905192504 | 24 | 42 | 6.4 | 14.5 | 0.00 | 0.00 | 0.00 | 83 | 1017.3 |
| 20260905192004 | 24 | 47 | 6.4 | 14.5 | 0.00 | 0.00 | 0.00 | 83 | 1017.2 |
| 20260905191506 | 24 | 52 | 3.2 | 9.7 | 0.00 | 0.00 | 0.00 | 83 | 1017.3 |
| 20260905191003 | 24 | 45 | 4.8 | 14.5 | 0.00 | 0.00 | 0.00 | 83 | 1017.3 |
| 20260905190503 | 24 | 46 | 8.0 | 19.3 | 0.00 | 0.00 | 0.00 | 83 | 1017.3 |
| 20260905190025 | 23 | 47 | 9.7 | 19.3 | 0.00 | 0.00 | 0.00 | 83 | 1017.2 |
| 20260905185504 | 24 | 47 | 9.7 | 17.7 | 0.00 | 0.00 | 0.00 | 83 | 1017.2 |
| 20260905185003 | 24 | 50 | 9.7 | 17.7 | 0.00 | 0.00 | 0.00 | 83 | 1017.2 |
| 20260905184503 | 24 | 51 | 11.3 | 17.7 | 0.00 | 0.00 | 0.00 | 83 | 1017.2 |
| 20260905184003 | 24 | 47 | 9.7 | 16.1 | 0.00 | 0.00 | 0.00 | 82 | 1017.2 |
| 20260905183504 | 24 | 42 | 9.7 | 17.7 | 0.00 | 0.00 | 0.00 | 83 | 1017.3 |
| 20260905183004 | 24 | 45 | 9.7 | 17.7 | 0.00 | 0.00 | 0.00 | 82 | 1017.2 |
| 20260905182504 | 24 | 47 | 9.7 | 19.3 | 0.00 | 0.00 | 0.00 | 82 | 1017.3 |
| 20260905182004 | 24 | 43 | 8.0 | 19.3 | 0.00 | 0.00 | 0.00 | 82 | 1017.4 |
| 20260905181503 | 24 | 43 | 6.4 | 17.7 | 0.00 | 0.00 | 0.00 | 83 | 1017.3 |
| 20260905181003 | 24 | 39 | 4.8 | 14.5 | 0.00 | 0.00 | 0.00 | 84 | 1017.3 |
| 20260905180524 | 24 | 36 | 4.8 | 11.3 | 0.00 | 0.00 | 0.00 | 83 | 1017.4 |
| 20260905180026 | 24 | 40 | 6.4 | 11.3 | 0.00 | 0.00 | 0.00 | 84 | 1017.4 |
| 20260905175524 | 24 | 16 | 4.8 | 11.3 | 0.00 | 0.00 | 0.00 | 83 | 1017.4 |
| 20260905175003 | 24 | 22 | 4.8 | 9.7 | 0.00 | 0.00 | 0.00 | 85 | 1017.4 |
| 20260905174503 | 23 | 50 | 4.8 | 11.3 | 0.00 | 0.00 | 0.00 | 85 | 1017.5 |
| 20260905174024 | 23 | 48 | 4.8 | 11.3 | 0.00 | 0.00 | 0.00 | 84 | 1017.5 |
| 20260905173503 | 23 | 35 | 3.2 | 9.7 | 0.00 | 0.00 | 0.00 | 84 | 1017.6 |
| 20260905173004 | 23 | 35 | 3.2 | 9.7 | 0.00 | 0.00 | 0.00 | 84 | 1017.6 |
| 20260905172528 | 24 | 38 | 3.2 | 11.3 | 0.00 | 0.00 | 0.00 | 83 | 1017.5 |
| 20260905172003 | 24 | 52 | 3.2 | 11.3 | 0.00 | 0.00 | 0.00 | 84 | 1017.5 |
| 20260905171524 | 24 | 56 | 1.6 | 11.3 | 0.00 | 0.00 | 0.00 | 84 | 1017.4 |
| 20260905171003 | 23 | 47 | 3.2 | 11.3 | 0.00 | 0.00 | 0.00 | 85 | 1017.4 |
| 20260905170505 | 23 | 46 | 4.8 | 11.3 | 0.00 | 0.00 | 0.00 | 85 | 1017.4 |
| 20260905170004 | 23 | 44 | 4.8 | 9.7 | 0.00 | 0.00 | 0.00 | 85 | 1017.5 |
| 20260905165506 | 23 | 47 | 4.8 | 11.3 | 0.00 | 0.00 | 0.00 | 86 | 1017.4 |
| 20260905165004 | 23 | 41 | 6.4 | 16.1 | 0.00 | 0.00 | 0.00 | 86 | 1017.4 |
| 20260905164506 | 23 | 39 | 6.4 | 16.1 | 0.00 | 0.00 | 0.00 | 86 | 1017.4 |
| 20260905164024 | 23 | 42 | 6.4 | 14.5 | 0.00 | 0.00 | 0.00 | 86 | 1017.4 |
| 20260905163524 | 23 | 39 | 6.4 | 16.1 | 0.00 | 0.00 | 0.00 | 87 | 1017.4 |
| 20260905163003 | 23 | 27 | 3.2 | 12.9 | 0.00 | 0.00 | 0.00 | 87 | 1017.3 |
| 20260905162503 | 22 | 34 | 3.2 | 11.3 | 0.00 | 0.00 | 0.00 | 89 | 1017.3 |
| 20260905162024 | 22 | 47 | 3.2 | 11.3 | 0.00 | 0.00 | 0.00 | 89 | 1017.5 |
| 20260905161504 | 22 | 49 | 4.8 | 12.9 | 0.00 | 0.00 | 0.00 | 90 | 1017.5 |
| 20260905161006 | 22 | 48 | 6.4 | 14.5 | 0.00 | 0.00 | 0.00 | 90 | 1017.5 |
| 20260905160524 | 22 | 46 | 6.4 | 14.5 | 0.00 | 0.00 | 0.00 | 90 | 1017.6 |
| 20260905160003 | 22 | 46 | 6.4 | 14.5 | 0.00 | 0.00 | 0.00 | 90 | 1017.5 |
| 20260905155503 | 22 | 46 | 8.0 | 14.5 | 0.00 | 0.00 | 0.00 | 90 | 1017.4 |
| 20260905155004 | 22 | 47 | 8.0 | 14.5 | 0.00 | 0.00 | 0.00 | 90 | 1017.3 |
| 20260905154503 | 22 | 45 | 8.0 | 14.5 | 0.00 | 0.00 | 0.00 | 90 | 1017.4 |
| 20260905154024 | 22 | 41 | 8.0 | 14.5 | 0.00 | 0.00 | 0.00 | 90 | 1017.4 |
| 20260905153504 | 22 | 44 | 8.0 | 17.7 | 0.00 | 0.00 | 0.00 | 89 | 1017.4 |
| 20260905153024 | 22 | 44 | 6.4 | 17.7 | 0.00 | 0.00 | 0.00 | 88 | 1017.4 |
| 20260905152524 | 22 | 45 | 8.0 | 25.7 | 0.00 | 0.00 | 0.00 | 89 | 1017.4 |
| 20260905152003 | 23 | 47 | 9.7 | 25.7 | 0.00 | 0.00 | 0.00 | 87 | 1017.1 |
| 20260905151503 | 23 | 50 | 8.0 | 16.1 | 0.00 | 0.00 | 0.00 | 87 | 1017.1 |
| 20260905151003 | 23 | 48 | 8.0 | 17.7 | 0.00 | 0.03 | 0.00 | 88 | 1017.0 |
| 20260905150524 | 23 | 47 | 9.7 | 17.7 | 0.00 | 0.13 | 0.00 | 88 | 1017.0 |
| 20260905150005 | 23 | 43 | 8.0 | 17.7 | 0.00 | 0.46 | 0.00 | 87 | 1017.0 |
| 20260905145525 | 23 | 40 | 8.0 | 14.5 | 0.00 | 0.48 | 0.00 | 87 | 1016.8 |
| 20260905145025 | 23 | 44 | 8.0 | 14.5 | 0.00 | 0.48 | 0.00 | 88 | 1016.7 |
| 20260905144503 | 23 | 47 | 6.4 | 16.1 | 0.00 | 0.48 | 0.00 | 88 | 1016.7 |
| 20260905144003 | 23 | 49 | 8.0 | 16.1 | 0.00 | 0.48 | 0.00 | 90 | 1016.7 |
| 20260905143503 | 22 | 44 | 9.7 | 16.1 | 0.00 | 0.48 | 0.00 | 89 | 1016.7 |
| 20260905143024 | 22 | 48 | 8.0 | 14.5 | 0.00 | 0.48 | 0.00 | 90 | 1016.6 |
| 20260905142524 | 22 | 58 | 9.7 | 16.1 | 0.00 | 0.48 | 0.00 | 90 | 1016.6 |
| 20260905142003 | 22 | 52 | 9.7 | 17.7 | 0.00 | 0.48 | 0.00 | 90 | 1016.6 |
| 20260905141503 | 22 | 45 | 9.7 | 20.9 | 0.00 | 0.48 | 0.00 | 90 | 1016.4 |
| 20260905141004 | 22 | 45 | 9.7 | 20.9 | 0.00 | 0.51 | 0.00 | 91 | 1016.3 |
| 20260905140503 | 22 | 43 | 9.7 | 17.7 | 0.00 | 0.58 | 0.00 | 90 | 1016.2 |
| 20260905140024 | 22 | 44 | 9.7 | 19.3 | 0.00 | 0.58 | 0.00 | 91 | 1016.1 |
| 20260905135524 | 22 | 45 | 11.3 | 19.3 | 0.00 | 0.61 | 0.00 | 91 | 1016.0 |
| 20260905135026 | 22 | 44 | 11.3 | 19.3 | 0.00 | 1.19 | 0.00 | 90 | 1016.0 |
| 20260905134503 | 22 | 45 | 9.7 | 19.3 | 0.00 | 1.80 | 0.00 | 91 | 1016.0 |
| 20260905134005 | 22 | 42 | 11.3 | 20.9 | 0.00 | 2.26 | 0.00 | 91 | 1016.1 |
| 20260905133524 | 22 | 40 | 12.9 | 20.9 | 0.00 | 2.39 | 0.00 | 91 | 1016.1 |
| 20260905133003 | 22 | 43 | 11.3 | 20.9 | 0.00 | 2.54 | 0.00 | 92 | 1016.1 |
| 20260905132503 | 22 | 49 | 9.7 | 19.3 | 0.00 | 2.74 | 0.00 | 93 | 1016.1 |